createdAt,value
2022-08-03T00:00:08.711Z,1.60
2022-08-03T00:05:18.912Z,1.70
2022-08-03T00:10:20.846Z,1.90
2022-08-03T00:15:22.337Z,1.83
2022-08-03T00:20:24.727Z,1.70
2022-08-03T00:25:26.592Z,1.93
2022-08-03T00:30:30.821Z,1.73
2022-08-03T00:35:37.177Z,2.30
2022-08-03T00:40:52.113Z,1.80
2022-08-03T00:45:54.667Z,2.00
2022-08-03T00:50:56.249Z,1.90
2022-08-03T00:55:58.169Z,1.97
2022-08-03T01:00:59.852Z,2.20
2022-08-03T01:06:14.144Z,2.23
2022-08-03T01:11:33.512Z,2.10
2022-08-03T01:16:41.367Z,1.90
2022-08-03T01:22:16.750Z,2.20
2022-08-03T01:27:22.019Z,2.37
2022-08-03T01:33:06.043Z,2.10
2022-08-03T01:38:14.064Z,2.07
2022-08-03T01:43:55.092Z,1.93
2022-08-03T01:48:40.157Z,2.07
2022-08-03T01:53:44.561Z,2.00
2022-08-03T01:58:46.627Z,2.00
2022-08-03T02:04:00.212Z,2.17
2022-08-03T02:09:03.984Z,1.90
2022-08-03T02:14:06.293Z,2.23
2022-08-03T02:19:08.594Z,1.93
2022-08-03T02:24:11.129Z,2.13
2022-08-03T02:29:17.788Z,2.10
2022-08-03T02:34:21.237Z,2.00
2022-08-03T02:39:25.218Z,2.33
2022-08-03T02:44:27.692Z,2.20
2022-08-03T02:49:49.991Z,2.20
2022-08-03T02:54:54.524Z,1.90
2022-08-03T02:59:56.687Z,2.20
2022-08-03T03:05:53.026Z,2.30
2022-08-03T03:10:22.554Z,2.27
2022-08-03T03:15:28.475Z,2.23
2022-08-03T03:20:30.609Z,2.20
2022-08-03T03:25:33.269Z,2.10
2022-08-03T03:30:34.788Z,2.20
2022-08-03T03:35:39.091Z,2.23
2022-08-03T03:40:41.397Z,2.10
2022-08-03T03:45:43.272Z,2.10
2022-08-03T03:50:45.145Z,2.30
2022-08-03T03:55:59.254Z,2.20
2022-08-03T04:01:03.970Z,2.20
2022-08-03T04:06:24.673Z,2.10
2022-08-03T04:11:29.333Z,2.60
2022-08-03T04:16:35.400Z,2.30
2022-08-03T04:21:41.097Z,2.23
2022-08-03T04:26:43.872Z,2.00
2022-08-03T04:31:46.888Z,2.20
2022-08-03T04:36:50.460Z,2.10
2022-08-03T04:42:04.675Z,1.97
2022-08-03T04:47:09.328Z,2.10
2022-08-03T04:52:11.434Z,2.20
2022-08-03T04:57:22.452Z,2.53
2022-08-03T05:02:25.061Z,2.17
2022-08-03T05:07:26.577Z,2.20
2022-08-03T05:12:38.318Z,2.40
2022-08-03T05:17:39.906Z,2.07
2022-08-03T05:22:41.387Z,2.07
2022-08-03T05:27:42.930Z,2.20
2022-08-03T05:32:44.435Z,2.70
2022-08-03T05:37:54.429Z,2.20
2022-08-03T05:42:59.842Z,2.20
2022-08-03T05:48:01.396Z,2.17
2022-08-03T05:53:03.217Z,2.00
2022-08-03T05:58:04.921Z,2.00
2022-08-03T06:03:06.539Z,2.20
2022-08-03T06:08:08.133Z,2.03
2022-08-03T06:13:09.698Z,2.05
2022-08-03T06:18:11.291Z,2.10
2022-08-03T06:23:17.688Z,2.10
2022-08-03T06:28:51.534Z,1.90
2022-08-03T06:34:32.953Z,1.88
2022-08-03T06:39:19.380Z,1.70
2022-08-03T06:44:20.955Z,1.88
2022-08-03T06:49:22.566Z,1.75
2022-08-03T06:54:24.408Z,1.70
2022-08-03T07:00:09.554Z,1.80
2022-08-03T07:04:48.732Z,1.90
2022-08-03T07:09:57.805Z,1.88
2022-08-03T07:15:02.675Z,1.85
2022-08-03T07:20:07.269Z,1.60
2022-08-03T07:25:09.432Z,1.73
2022-08-03T07:30:11.462Z,1.65
2022-08-03T07:35:25.348Z,1.80
2022-08-03T07:40:30.749Z,1.90
2022-08-03T07:45:33.625Z,1.67
2022-08-03T07:50:35.235Z,1.75
2022-08-03T07:55:36.854Z,1.80
2022-08-03T08:00:38.634Z,1.73
2022-08-03T08:05:40.121Z,1.70
2022-08-03T08:10:41.643Z,1.65
2022-08-03T08:15:59.538Z,1.63
2022-08-03T08:21:03.197Z,1.58
2022-08-03T08:26:04.895Z,1.60
2022-08-03T08:31:06.662Z,1.80
2022-08-03T08:36:12.042Z,1.50
2022-08-03T08:41:16.867Z,1.50
2022-08-03T08:46:23.537Z,1.40
2022-08-03T08:51:54.459Z,1.52
2022-08-03T08:56:53.573Z,1.65
2022-08-03T09:01:58.791Z,1.20
2022-08-03T09:07:19.315Z,1.50
2022-08-03T09:12:40.953Z,1.20
2022-08-03T09:17:46.406Z,1.33
2022-08-03T09:22:54.473Z,1.40
2022-08-03T09:28:04.788Z,1.40
2022-08-03T09:33:08.893Z,1.10
2022-08-03T09:38:14.129Z,1.40
2022-08-03T09:43:16.565Z,1.20
2022-08-03T09:48:37.412Z,1.50
2022-08-03T09:53:57.279Z,1.23
2022-08-03T09:59:01.383Z,1.27
2022-08-03T10:04:05.173Z,1.20
2022-08-03T10:09:09.127Z,1.30
2022-08-03T10:14:18.739Z,1.50
2022-08-03T10:19:20.442Z,1.30
2022-08-03T10:24:26.231Z,1.33
2022-08-03T10:29:28.883Z,1.50
2022-08-03T10:34:42.592Z,1.30
2022-08-03T10:39:55.447Z,1.25
2022-08-03T10:45:08.699Z,1.50
2022-08-03T10:50:11.230Z,1.17
2022-08-03T10:55:50.138Z,1.52
2022-08-03T11:00:51.813Z,1.50
2022-08-03T11:05:55.505Z,1.52
2022-08-03T11:11:00.223Z,1.60
2022-08-03T11:16:07.110Z,1.50
2022-08-03T11:21:10.176Z,1.40
2022-08-03T11:26:15.282Z,1.75
2022-08-03T11:31:51.454Z,1.50
2022-08-03T11:37:19.894Z,1.60
2022-08-03T11:42:24.486Z,1.48
2022-08-03T11:47:27.694Z,1.30
2022-08-03T11:52:37.337Z,1.60
2022-08-03T11:59:01.335Z,1.20
2022-08-03T12:03:04.206Z,1.23
2022-08-03T12:08:06.905Z,1.60
2022-08-03T12:13:56.811Z,1.48
2022-08-03T12:18:33.215Z,1.52
2022-08-03T12:23:37.791Z,1.65
2022-08-03T12:28:49.723Z,1.55
2022-08-03T12:34:03.190Z,1.30
2022-08-03T12:39:07.195Z,1.30
2022-08-03T12:44:09.600Z,1.40
2022-08-03T12:49:15.136Z,1.25
2022-08-03T12:54:24.374Z,1.35
2022-08-03T12:59:34.850Z,1.20
2022-08-03T13:04:37.341Z,1.30
2022-08-03T13:09:48.151Z,1.85
2022-08-03T13:14:51.965Z,1.27
2022-08-03T13:19:53.838Z,1.27
2022-08-03T13:24:57.471Z,1.40
2022-08-03T13:29:59.246Z,1.13
2022-08-03T13:35:02.555Z,1.27
2022-08-03T13:40:06.436Z,1.02
2022-08-03T13:45:09.232Z,1.25
2022-08-03T13:50:11.448Z,1.23
2022-08-03T13:55:13.209Z,1.35
2022-08-03T14:00:27.319Z,1.23
2022-08-03T14:05:32.126Z,1.38
2022-08-03T14:10:43.898Z,1.20
2022-08-03T14:15:49.916Z,1.30
2022-08-03T14:20:56.327Z,1.10
2022-08-03T14:25:59.144Z,1.00
2022-08-03T14:31:01.057Z,1.15
2022-08-03T14:36:02.560Z,1.10
2022-08-03T14:41:04.369Z,1.23
2022-08-03T14:46:06.901Z,0.88
2022-08-03T14:51:08.494Z,1.10
2022-08-03T14:56:10.872Z,1.30
2022-08-03T15:02:04.904Z,1.38
2022-08-03T15:06:34.151Z,1.20
2022-08-03T15:11:36.083Z,1.20
2022-08-03T15:16:38.625Z,1.38
2022-08-03T15:21:47.246Z,1.30
2022-08-03T15:26:49.862Z,1.38
2022-08-03T15:31:51.398Z,1.40
2022-08-03T15:36:53.082Z,1.00
2022-08-03T15:41:54.761Z,1.23
2022-08-03T15:46:58.019Z,1.08
2022-08-03T15:52:01.028Z,1.23
2022-08-03T15:57:02.535Z,1.10
2022-08-03T16:02:04.173Z,1.05
2022-08-03T16:07:05.924Z,1.10
2022-08-03T16:12:14.437Z,1.20
2022-08-03T16:17:18.213Z,1.05
2022-08-03T16:22:19.859Z,1.20
2022-08-03T16:27:37.083Z,1.17
2022-08-03T16:32:46.419Z,1.15
2022-08-03T16:37:56.141Z,1.17
2022-08-03T16:42:58.226Z,1.20
2022-08-03T16:48:01.634Z,1.17
2022-08-03T16:53:09.307Z,1.30
2022-08-03T16:58:12.515Z,1.23
2022-08-03T17:03:20.549Z,1.17
2022-08-03T17:08:26.844Z,0.80
2022-08-03T17:13:39.286Z,1.20
2022-08-03T17:18:54.835Z,1.20
2022-08-03T17:24:20.466Z,1.27
2022-08-03T17:29:25.027Z,1.38
2022-08-03T17:34:26.910Z,1.50
2022-08-03T17:39:55.680Z,1.60
2022-08-03T17:44:54.174Z,1.35
2022-08-03T17:49:56.845Z,1.38
2022-08-03T17:55:55.682Z,1.40
2022-08-03T18:00:52.983Z,1.65
2022-08-03T18:06:11.718Z,1.50
2022-08-03T18:11:21.602Z,1.70
2022-08-03T18:16:41.849Z,1.70
2022-08-03T18:22:03.591Z,1.60
2022-08-03T18:27:06.512Z,1.55
2022-08-03T18:32:13.558Z,1.50
2022-08-03T18:37:26.980Z,1.38
2022-08-03T18:42:32.198Z,1.48
2022-08-03T18:48:15.928Z,1.40
2022-08-03T19:04:33.526Z,1.70
2022-08-03T19:09:54.571Z,2.20
2022-08-03T19:15:12.396Z,1.80
2022-08-03T19:20:14.598Z,1.80
2022-08-03T19:25:17.911Z,1.50
2022-08-03T19:30:46.207Z,1.60
2022-08-03T19:36:10.478Z,1.70
2022-08-03T19:41:15.915Z,1.80
2022-08-03T19:46:20.023Z,1.70
2022-08-03T19:51:52.513Z,1.70
2022-08-03T19:56:48.440Z,1.60
2022-08-03T20:01:50.197Z,1.45
2022-08-03T20:06:56.947Z,1.70
2022-08-03T20:11:58.980Z,1.58
2022-08-03T20:17:00.614Z,1.70
2022-08-03T20:22:04.997Z,1.90
2022-08-03T20:27:18.121Z,1.60
2022-08-03T20:32:20.474Z,1.48
2022-08-03T20:37:26.415Z,1.63
2022-08-03T20:42:31.686Z,1.80
2022-08-03T20:47:36.376Z,1.60
2022-08-03T20:52:43.852Z,1.63
2022-08-03T20:57:54.893Z,1.45
2022-08-03T21:02:56.663Z,1.52
2022-08-03T21:08:06.487Z,1.67
2022-08-03T21:13:11.192Z,1.60
2022-08-03T21:13:11.241Z,1.38
2022-08-03T21:13:18.807Z,1.75
2022-08-03T21:18:21.238Z,1.80
2022-08-03T21:23:37.036Z,1.60
2022-08-03T21:28:43.402Z,1.45
2022-08-03T21:33:47.018Z,1.70
2022-08-03T21:38:56.201Z,1.40
2022-08-03T21:43:59.898Z,1.63
2022-08-03T21:50:04.347Z,1.60
2022-08-03T21:54:34.898Z,1.65
2022-08-03T21:59:38.031Z,1.90
2022-08-03T22:04:55.564Z,1.73
2022-08-03T22:10:01.352Z,2.00
2022-08-03T22:15:05.704Z,2.03
2022-08-03T22:20:08.850Z,1.90
2022-08-03T22:25:14.917Z,1.85
2022-08-03T22:30:18.294Z,1.88
2022-08-03T22:35:21.018Z,2.00
2022-08-03T22:40:22.618Z,1.70
2022-08-03T22:46:07.736Z,1.92
2022-08-03T22:50:46.341Z,1.90
2022-08-03T22:55:51.859Z,1.75
2022-08-03T23:01:06.965Z,1.65
2022-08-03T23:06:09.072Z,2.00
2022-08-03T23:11:10.753Z,1.77
2022-08-03T23:16:13.089Z,1.90
2022-08-03T23:21:16.188Z,1.58
2022-08-03T23:26:18.070Z,1.90
2022-08-03T23:31:21.266Z,1.98
2022-08-03T23:36:31.125Z,1.90
2022-08-03T23:41:35.115Z,1.52
2022-08-03T23:46:37.293Z,1.90
2022-08-03T23:51:44.535Z,1.50
2022-08-03T23:56:55.236Z,1.55
